Disclaimer

Please do not use the information listed here in-flight or in-navigation, as they are not provided to us by the airports but are provided by volunteers, so they might be outdated.

Search


Regions


Airport information page

Radio informations:
TRINIDAD RDO - 6622 MHz
TRINIDAD GND - 121.9 MHz

Airport informations:
Latitude: 14° 49' 07.46" S
Longitude: 064° 55' 04.87" W
Elevation: 509 feet - 155 meters
Operating hours: From sunrise to sunset (SR-SS)
Operating agency: Civil government, landing fees and diplomatic clearance may be required
Timezone: UTC-4
Fuel: Jet A1, without icing nhibitor.

100/130 MIL Spec, low lead, aviation gasoline (BLUE)

Runway information:
14/32 - 7874 x 98 feet< - >2400 x 30 meters

Recent METARs:
SLTR 210900Z 00000KT 9999 SCT080 24/24 Q1011
SLTR 211000Z 00000KT 9999 SCT080 24/23 Q1011
SLTR 211000Z 00000KT 9999 SCT080 24/23 Q1011

Airport on the map: